ADDS METAR Data INFO
IDs: Format: Raw Decoded Include TAF

Data at: 1837 UTC 16 Dec 2017

PAAQ 161753Z 36011KT 10SM FEW090 00/M02 A2915 RMK AO2 SLP876 T00001022 10044 20000 50000
PAAQ 161653Z 01006KT 10SM OVC095 01/M01 A2916 RMK AO2 SLP877 T00061011
PAAQ 161553Z AUTO 10SM SCT100 03/M01 A2916 RMK AO2 SLP877 T00281011 TSNO
PAAQ 161453Z AUTO 11007KT 10SM OVC095 03/M01 A2915 RMK AO2 SLP876 T00281006 56005 TSNO
PAAQ 161353Z AUTO 07006KT 10SM OVC090 03/M01 A2915 RMK AO2 SLP876 T00281006 TSNO
PAAQ 161253Z AUTO 10010G18KT 080V140 10SM FEW090 03/M01 A2916 RMK AO2 SLP877 T00281006 TSNO
PAAQ 161153Z AUTO VRB04KT 10SM CLR 03/M02 A2917 RMK AO2 SLP880 60000 T00281017 10056 20028 51004 TSNO
PAAQ 161053Z AUTO 13018G28KT 10SM SCT048 03/M01 A2916 RMK AO2 PK WND 11032/1032 RAB0959E27 SLP876 P0000 T00331006 TSNO
PAAQ 160953Z AUTO 13012G20KT 10SM OVC044 04/00 A2918 RMK AO2 SLP884 T00390000 TSNO
PAAQ 160853Z AUTO 11013G25KT 10SM OVC055 04/M01 A2915 RMK AO2 PK WND 10037/0806 RAB07E32 SLP876 P0000 60000 T00441006 400561061 56014 TSNO
PAAQ 160753Z AUTO 11025G32KT 10SM OVC065 04/M01 A2916 RMK AO2 PK WND 13032/0722 SLP877 T00441006 TSNO
PAAQ 160653Z AUTO 12020G30KT 10SM SCT055 OVC070 04/M01 A2917 RMK AO2 PK WND 11031/0633 SLP882 T00441006 TSNO
PAAQ 160553Z AUTO 10015G26KT 070V140 10SM SCT055 OVC070 05/M01 A2920 RMK AO2 PK WND 10028/0514 SLP890 T00501011 10056 20006 56034 TSNO
PAAQ 160453Z AUTO 06018G28KT 10SM FEW055 OVC070 05/M02 A2922 RMK AO2 PK WND 06028/0452 SLP897 T00501017 TSNO
PAAQ 160353Z AUTO 08008KT 010V140 10SM OVC065 03/M03 A2925 RMK AO2 SLP908 T00281028 TSNO
PAAQ 160253Z 12017G23KT 10SM OVC050 03/00 A2930 RMK AO2 SLP924 T00330000 58035
PAAQ 160153Z AUTO 35006KT 10SM OVC065 01/M04 A2933 RMK AO2 SLP938 T00111044 TSNO
PAAQ 160053Z 13014G20KT 10SM SCT045 BKN075 OVC090 04/M02 A2937 RMK AO2 SLP950 T00441017
PAAQ 152353Z 13015G27KT 10SM FEW080 OVC110 05/M03 A2940 RMK AO2 PK WND 13029/2336 WSHFT 2330 SLP960 T00501028 10050 21011 56029
PAAQ 152350Z 13017G27KT 10SM FEW080 OVC110 05/M03 A2940 RMK AO2 PK WND 13029/2336 WSHFT 2330
PAAQ 152253Z VRB04KT 10SM SCT050 OVC100 01/M04 A2944 RMK AO2 SLP975 T00111044
PAAQ 152153Z 34013G18KT 10SM SCT070 OVC100 M01/M04 A2949 RMK AO2 SLP990 T10061044
PAAQ 152053Z 34010KT 10SM FEW080 BKN110 OVC200 M01/M04 A2952 RMK AO2 SLP001 BLSN MTN PKS E-S T10061044 58026
PAAQ 151953Z 34012KT 10SM FEW080 OVC200 M01/M04 A2955 RMK AO2 SLP010 BLSN MTN PKS E-S T10061044
PAAQ 151853Z VRB03KT 10SM FEW080 OVC200 02/M04 A2957 RMK AO2 SLP018 BLSN MTN PKS E T00221039
PAAQ 151753Z 02006KT 10SM CLR 00/M03 A2960 RMK AO2 SLP027 I6000 T00001033 10000 21061 58014
PAAQ 151653Z 36011KT 10SM CLR M02/M04 A2962 RMK AO2 SLP035 T10221039
PAAQ 151553Z AUTO 35011KT 10SM CLR M03/M04 A2963 RMK AO2 SLP040 T10281044 TSNO
PAAQ 151453Z AUTO 35011KT 10SM CLR M04/M04 A2964 RMK AO2 SLP042 I3000 T10391044 58008 TSNO
PAAQ 151353Z AUTO 36008KT 10SM CLR M05/M06 A2966 RMK AO2 SLP047 T10501056 TSNO
PAAQ 151253Z AUTO 36008KT 10SM CLR M03/M03 A2967 RMK AO2 SLP052 I1000 T10281033 TSNO
PAAQ 151153Z AUTO 34006KT 10SM CLR M04/M04 A2966 RMK AO2 SLP050 60002 70013 T10391039 11006 21044 51012 TSNO
PAAQ 151053Z AUTO 36005KT 10SM SCT070 M03/M03 A2966 RMK AO2 SNB13E39 SLP049 P0000 T10281028 TSNO
PAAQ 150953Z AUTO 11004KT 9SM OVC070 M01/M01 A2965 RMK AO2 SNE48 SLP045 P0000 T10111011 TSNO
PAAQ 150917Z AUTO 09006KT 3SM -SN BR FEW006 OVC035 M01/M01 A2964 RMK AO2 P0000 T10111011 TSNO
PAAQ 150853Z AUTO 07003KT 5SM -SN BR SCT020 OVC039 M01/M01 A2963 RMK AO2 SLP038 P0000 60002 T10111011 400001028 51013 TSNO
PAAQ 150850Z AUTO 08004KT 6SM -SN BR SCT020 OVC039 M01/M01 A2963 RMK AO2 P0000 TSNO
PAAQ 150815Z AUTO 11006KT 3SM -SN BR SCT005 BKN021 OVC034 M01/M01 A2962 RMK AO2 P0000 T10111011 TSNO
PAAQ 150802Z AUTO 11006KT 2SM -SN BR FEW005 OVC030 M01/M01 A2961 RMK AO2 P0000 T10111011 TSNO
PAAQ 150753Z AUTO 11007KT 2 1/2SM -SN BR FEW019 OVC024 M01/M01 A2961 RMK AO2 SLP032 P0001 T10111011 TSNO
PAAQ 150740Z AUTO 12008KT 2SM -SN BR FEW005 OVC021 M01/M01 A2961 RMK AO2 P0001 T10111011 TSNO
PAAQ 150721Z AUTO 11005KT 5SM -SN BR SCT005 OVC019 M01/M01 A2960 RMK AO2 P0000 T10111011 TSNO
PAAQ 150702Z AUTO 11006KT 2 1/2SM -SN BR FEW005 OVC019 M01/M01 A2960 RMK AO2 P0000 T10111011 TSNO
PAAQ 150653Z AUTO 12007KT 5SM -SN BR OVC019 M01/M01 A2959 RMK AO2 SLP025 P0001 T10111011 TSNO